sensor_id;sensor_type;location;lat;lon;timestamp;P1;durP1;ratioP1;P2;durP2;ratioP2
74833;SDS011;63361;52.384;20.930;2023-06-19T00:01:39;36.00;;;18.38;;
74833;SDS011;63361;52.384;20.930;2023-06-19T00:04:04;32.23;;;17.33;;
74833;SDS011;63361;52.384;20.930;2023-06-19T00:06:29;36.40;;;18.70;;
74833;SDS011;63361;52.384;20.930;2023-06-19T00:08:55;35.57;;;18.73;;
74833;SDS011;63361;52.384;20.930;2023-06-19T00:11:20;28.90;;;15.90;;
74833;SDS011;63361;52.384;20.930;2023-06-19T00:13:45;28.43;;;16.20;;
74833;SDS011;63361;52.384;20.930;2023-06-19T00:16:10;32.93;;;16.93;;
74833;SDS011;63361;52.384;20.930;2023-06-19T00:18:36;35.90;;;19.33;;
74833;SDS011;63361;52.384;20.930;2023-06-19T00:21:05;33.65;;;17.27;;
74833;SDS011;63361;52.384;20.930;2023-06-19T00:23:31;36.28;;;18.60;;
74833;SDS011;63361;52.384;20.930;2023-06-19T00:25:56;37.27;;;18.40;;
74833;SDS011;63361;52.384;20.930;2023-06-19T00:28:21;34.17;;;18.40;;
74833;SDS011;63361;52.384;20.930;2023-06-19T00:30:46;31.90;;;17.87;;
74833;SDS011;63361;52.384;20.930;2023-06-19T00:33:12;29.87;;;17.43;;
74833;SDS011;63361;52.384;20.930;2023-06-19T00:35:37;42.33;;;20.83;;
74833;SDS011;63361;52.384;20.930;2023-06-19T00:38:02;45.60;;;20.67;;
74833;SDS011;63361;52.384;20.930;2023-06-19T00:40:28;46.37;;;20.27;;
74833;SDS011;63361;52.384;20.930;2023-06-19T00:42:54;34.58;;;18.38;;
74833;SDS011;63361;52.384;20.930;2023-06-19T00:45:19;36.90;;;18.40;;
74833;SDS011;63361;52.384;20.930;2023-06-19T00:47:44;32.97;;;17.77;;
74833;SDS011;63361;52.384;20.930;2023-06-19T00:50:10;31.63;;;19.23;;
74833;SDS011;63361;52.384;20.930;2023-06-19T00:52:36;33.15;;;18.70;;
74833;SDS011;63361;52.384;20.930;2023-06-19T00:55:01;36.67;;;18.93;;
74833;SDS011;63361;52.384;20.930;2023-06-19T00:57:27;32.37;;;18.03;;
74833;SDS011;63361;52.384;20.930;2023-06-19T00:59:52;33.60;;;18.33;;
74833;SDS011;63361;52.384;20.930;2023-06-19T01:02:18;33.07;;;18.80;;
74833;SDS011;63361;52.384;20.930;2023-06-19T01:04:48;37.95;;;20.65;;
74833;SDS011;63361;52.384;20.930;2023-06-19T01:07:13;37.80;;;21.47;;
74833;SDS011;63361;52.384;20.930;2023-06-19T01:09:46;44.63;;;22.88;;
74833;SDS011;63361;52.384;20.930;2023-06-19T01:12:15;47.80;;;23.87;;
74833;SDS011;63361;52.384;20.930;2023-06-19T01:14:45;53.95;;;25.83;;
74833;SDS011;63361;52.384;20.930;2023-06-19T01:17:11;45.47;;;23.02;;
74833;SDS011;63361;52.384;20.930;2023-06-19T01:19:37;48.63;;;24.30;;
74833;SDS011;63361;52.384;20.930;2023-06-19T01:22:02;41.60;;;23.40;;
74833;SDS011;63361;52.384;20.930;2023-06-19T01:24:28;45.83;;;24.08;;
74833;SDS011;63361;52.384;20.930;2023-06-19T01:26:53;42.27;;;21.63;;
74833;SDS011;63361;52.384;20.930;2023-06-19T01:29:19;48.90;;;23.73;;
74833;SDS011;63361;52.384;20.930;2023-06-19T01:34:09;43.30;;;20.87;;
74833;SDS011;63361;52.384;20.930;2023-06-19T01:36:36;42.75;;;22.98;;
74833;SDS011;63361;52.384;20.930;2023-06-19T01:39:01;42.67;;;22.33;;
74833;SDS011;63361;52.384;20.930;2023-06-19T01:41:27;36.97;;;20.25;;
74833;SDS011;63361;52.384;20.930;2023-06-19T01:43:53;33.43;;;19.63;;
74833;SDS011;63361;52.384;20.930;2023-06-19T01:46:18;40.70;;;20.60;;
74833;SDS011;63361;52.384;20.930;2023-06-19T01:48:43;44.83;;;23.27;;
74833;SDS011;63361;52.384;20.930;2023-06-19T01:51:09;43.83;;;22.40;;
74833;SDS011;63361;52.384;20.930;2023-06-19T01:53:35;43.80;;;20.93;;
74833;SDS011;63361;52.384;20.930;2023-06-19T01:56:00;39.63;;;19.87;;
74833;SDS011;63361;52.384;20.930;2023-06-19T01:58:25;38.90;;;19.88;;
74833;SDS011;63361;52.384;20.930;2023-06-19T02:00:51;41.37;;;20.13;;
74833;SDS011;63361;52.384;20.930;2023-06-19T02:03:16;45.83;;;20.70;;
74833;SDS011;63361;52.384;20.930;2023-06-19T02:05:42;46.07;;;21.20;;
74833;SDS011;63361;52.384;20.930;2023-06-19T02:08:07;38.47;;;20.33;;
74833;SDS011;63361;52.384;20.930;2023-06-19T02:10:32;35.77;;;18.70;;
74833;SDS011;63361;52.384;20.930;2023-06-19T02:12:58;37.60;;;19.40;;
74833;SDS011;63361;52.384;20.930;2023-06-19T02:15:23;36.83;;;20.13;;
74833;SDS011;63361;52.384;20.930;2023-06-19T02:17:48;32.67;;;19.43;;
74833;SDS011;63361;52.384;20.930;2023-06-19T02:20:14;30.53;;;18.23;;
74833;SDS011;63361;52.384;20.930;2023-06-19T02:22:39;28.70;;;17.63;;
74833;SDS011;63361;52.384;20.930;2023-06-19T02:25:04;31.67;;;19.23;;
74833;SDS011;63361;52.384;20.930;2023-06-19T02:27:30;34.40;;;19.38;;
74833;SDS011;63361;52.384;20.930;2023-06-19T02:29:55;40.93;;;20.30;;
74833;SDS011;63361;52.384;20.930;2023-06-19T02:32:20;41.87;;;21.83;;
74833;SDS011;63361;52.384;20.930;2023-06-19T02:34:45;42.50;;;19.90;;
74833;SDS011;63361;52.384;20.930;2023-06-19T02:37:11;43.53;;;21.23;;
74833;SDS011;63361;52.384;20.930;2023-06-19T02:39:36;51.83;;;21.57;;
74833;SDS011;63361;52.384;20.930;2023-06-19T02:42:01;61.67;;;24.63;;
74833;SDS011;63361;52.384;20.930;2023-06-19T02:44:26;64.17;;;26.77;;
74833;SDS011;63361;52.384;20.930;2023-06-19T02:46:51;66.53;;;25.97;;
74833;SDS011;63361;52.384;20.930;2023-06-19T02:49:17;66.33;;;24.57;;
74833;SDS011;63361;52.384;20.930;2023-06-19T02:51:42;62.07;;;24.33;;
74833;SDS011;63361;52.384;20.930;2023-06-19T02:54:07;53.17;;;22.87;;
74833;SDS011;63361;52.384;20.930;2023-06-19T02:56:32;55.13;;;23.73;;
74833;SDS011;63361;52.384;20.930;2023-06-19T02:58:57;51.73;;;22.07;;
74833;SDS011;63361;52.384;20.930;2023-06-19T03:01:23;51.33;;;22.07;;
74833;SDS011;63361;52.384;20.930;2023-06-19T03:03:48;43.47;;;20.50;;
74833;SDS011;63361;52.384;20.930;2023-06-19T03:06:13;37.57;;;20.03;;
74833;SDS011;63361;52.384;20.930;2023-06-19T03:08:38;39.07;;;19.97;;
74833;SDS011;63361;52.384;20.930;2023-06-19T03:11:04;40.85;;;19.75;;
74833;SDS011;63361;52.384;20.930;2023-06-19T03:16:14;32.58;;;18.42;;
74833;SDS011;63361;52.384;20.930;2023-06-19T03:18:40;34.33;;;18.77;;
74833;SDS011;63361;52.384;20.930;2023-06-19T03:21:05;40.30;;;19.58;;
74833;SDS011;63361;52.384;20.930;2023-06-19T03:23:30;44.57;;;21.47;;
74833;SDS011;63361;52.384;20.930;2023-06-19T03:25:55;40.43;;;20.50;;
74833;SDS011;63361;52.384;20.930;2023-06-19T03:28:22;47.60;;;21.30;;
74833;SDS011;63361;52.384;20.930;2023-06-19T03:30:47;41.38;;;20.65;;
74833;SDS011;63361;52.384;20.930;2023-06-19T03:33:12;42.47;;;21.87;;
74833;SDS011;63361;52.384;20.930;2023-06-19T03:35:38;38.37;;;22.07;;
74833;SDS011;63361;52.384;20.930;2023-06-19T03:38:03;34.97;;;20.67;;
74833;SDS011;63361;52.384;20.930;2023-06-19T03:40:28;29.07;;;19.33;;
74833;SDS011;63361;52.384;20.930;2023-06-19T03:42:54;29.53;;;18.97;;
74833;SDS011;63361;52.384;20.930;2023-06-19T03:45:19;27.20;;;18.43;;
74833;SDS011;63361;52.384;20.930;2023-06-19T03:47:44;24.00;;;17.63;;
74833;SDS011;63361;52.384;20.930;2023-06-19T03:50:09;23.60;;;17.63;;
74833;SDS011;63361;52.384;20.930;2023-06-19T03:52:35;20.83;;;14.80;;
74833;SDS011;63361;52.384;20.930;2023-06-19T03:55:00;22.33;;;14.60;;
74833;SDS011;63361;52.384;20.930;2023-06-19T03:57:26;18.10;;;13.00;;
74833;SDS011;63361;52.384;20.930;2023-06-19T03:59:52;18.05;;;13.20;;
74833;SDS011;63361;52.384;20.930;2023-06-19T04:02:18;17.13;;;12.88;;
74833;SDS011;63361;52.384;20.930;2023-06-19T04:04:44;15.60;;;12.10;;
74833;SDS011;63361;52.384;20.930;2023-06-19T04:07:10;14.25;;;11.32;;
74833;SDS011;63361;52.384;20.930;2023-06-19T04:09:35;16.33;;;12.10;;
74833;SDS011;63361;52.384;20.930;2023-06-19T04:12:00;14.73;;;11.70;;
74833;SDS011;63361;52.384;20.930;2023-06-19T04:14:25;14.23;;;11.07;;
74833;SDS011;63361;52.384;20.930;2023-06-19T04:16:51;15.33;;;12.20;;
74833;SDS011;63361;52.384;20.930;2023-06-19T04:19:16;15.97;;;11.70;;
74833;SDS011;63361;52.384;20.930;2023-06-19T04:21:41;13.13;;;11.73;;
74833;SDS011;63361;52.384;20.930;2023-06-19T04:24:06;12.77;;;11.23;;
74833;SDS011;63361;52.384;20.930;2023-06-19T04:26:34;14.30;;;10.80;;
74833;SDS011;63361;52.384;20.930;2023-06-19T04:28:59;15.68;;;11.52;;
74833;SDS011;63361;52.384;20.930;2023-06-19T04:31:26;15.13;;;11.73;;
74833;SDS011;63361;52.384;20.930;2023-06-19T04:33:51;14.13;;;11.20;;
74833;SDS011;63361;52.384;20.930;2023-06-19T04:36:16;13.23;;;11.50;;
74833;SDS011;63361;52.384;20.930;2023-06-19T04:38:42;14.67;;;11.47;;
74833;SDS011;63361;52.384;20.930;2023-06-19T04:41:07;13.60;;;12.00;;
74833;SDS011;63361;52.384;20.930;2023-06-19T04:43:32;15.53;;;11.13;;
74833;SDS011;63361;52.384;20.930;2023-06-19T04:45:59;13.77;;;10.95;;
74833;SDS011;63361;52.384;20.930;2023-06-19T04:48:24;12.30;;;11.00;;
74833;SDS011;63361;52.384;20.930;2023-06-19T04:50:50;13.65;;;10.63;;
74833;SDS011;63361;52.384;20.930;2023-06-19T04:53:15;14.23;;;10.67;;
74833;SDS011;63361;52.384;20.930;2023-06-19T04:55:40;12.73;;;10.37;;
74833;SDS011;63361;52.384;20.930;2023-06-19T04:58:05;13.27;;;10.23;;
74833;SDS011;63361;52.384;20.930;2023-06-19T05:00:31;13.07;;;11.10;;
74833;SDS011;63361;52.384;20.930;2023-06-19T05:02:56;12.27;;;10.77;;
74833;SDS011;63361;52.384;20.930;2023-06-19T05:05:24;13.35;;;10.20;;
74833;SDS011;63361;52.384;20.930;2023-06-19T05:07:49;12.27;;;10.33;;
74833;SDS011;63361;52.384;20.930;2023-06-19T05:10:15;12.90;;;10.27;;
74833;SDS011;63361;52.384;20.930;2023-06-19T05:12:40;12.20;;;9.53;;
74833;SDS011;63361;52.384;20.930;2023-06-19T05:15:05;11.47;;;9.43;;
74833;SDS011;63361;52.384;20.930;2023-06-19T05:17:31;10.83;;;9.30;;
74833;SDS011;63361;52.384;20.930;2023-06-19T05:19:56;11.37;;;9.33;;
74833;SDS011;63361;52.384;20.930;2023-06-19T05:22:21;11.20;;;9.40;;
74833;SDS011;63361;52.384;20.930;2023-06-19T05:24:48;10.07;;;8.87;;
74833;SDS011;63361;52.384;20.930;2023-06-19T05:27:14;10.57;;;8.73;;
74833;SDS011;63361;52.384;20.930;2023-06-19T05:29:39;10.50;;;8.57;;
74833;SDS011;63361;52.384;20.930;2023-06-19T05:32:04;10.47;;;8.67;;
74833;SDS011;63361;52.384;20.930;2023-06-19T05:34:29;9.50;;;8.50;;
74833;SDS011;63361;52.384;20.930;2023-06-19T05:36:55;10.77;;;7.90;;
74833;SDS011;63361;52.384;20.930;2023-06-19T05:39:20;8.20;;;7.27;;
74833;SDS011;63361;52.384;20.930;2023-06-19T05:41:45;9.83;;;7.70;;
74833;SDS011;63361;52.384;20.930;2023-06-19T05:44:11;9.20;;;7.83;;
74833;SDS011;63361;52.384;20.930;2023-06-19T05:46:40;9.90;;;8.15;;
74833;SDS011;63361;52.384;20.930;2023-06-19T05:49:05;9.27;;;7.33;;
74833;SDS011;63361;52.384;20.930;2023-06-19T05:51:30;9.63;;;7.77;;
74833;SDS011;63361;52.384;20.930;2023-06-19T05:53:55;10.73;;;7.43;;
74833;SDS011;63361;52.384;20.930;2023-06-19T05:56:26;10.10;;;7.07;;
74833;SDS011;63361;52.384;20.930;2023-06-19T05:58:51;9.27;;;6.87;;
74833;SDS011;63361;52.384;20.930;2023-06-19T06:01:16;9.33;;;7.50;;
74833;SDS011;63361;52.384;20.930;2023-06-19T06:03:42;9.88;;;8.18;;
74833;SDS011;63361;52.384;20.930;2023-06-19T06:06:08;8.50;;;7.00;;
74833;SDS011;63361;52.384;20.930;2023-06-19T06:08:33;8.87;;;7.67;;
74833;SDS011;63361;52.384;20.930;2023-06-19T06:10:58;11.73;;;7.70;;
74833;SDS011;63361;52.384;20.930;2023-06-19T06:13:23;9.13;;;6.70;;
74833;SDS011;63361;52.384;20.930;2023-06-19T06:15:49;8.43;;;7.00;;
74833;SDS011;63361;52.384;20.930;2023-06-19T06:18:15;8.73;;;6.90;;
74833;SDS011;63361;52.384;20.930;2023-06-19T06:20:40;9.20;;;6.80;;
74833;SDS011;63361;52.384;20.930;2023-06-19T06:23:05;6.90;;;5.67;;
74833;SDS011;63361;52.384;20.930;2023-06-19T06:25:31;9.07;;;5.77;;
74833;SDS011;63361;52.384;20.930;2023-06-19T06:27:56;7.27;;;5.93;;
74833;SDS011;63361;52.384;20.930;2023-06-19T06:30:21;7.67;;;5.40;;
74833;SDS011;63361;52.384;20.930;2023-06-19T06:32:47;8.65;;;5.38;;
74833;SDS011;63361;52.384;20.930;2023-06-19T06:35:13;7.87;;;6.07;;
74833;SDS011;63361;52.384;20.930;2023-06-19T06:37:38;7.87;;;5.87;;
74833;SDS011;63361;52.384;20.930;2023-06-19T06:40:04;8.33;;;6.07;;
74833;SDS011;63361;52.384;20.930;2023-06-19T06:42:33;7.45;;;5.40;;
74833;SDS011;63361;52.384;20.930;2023-06-19T06:44:59;7.10;;;5.73;;
74833;SDS011;63361;52.384;20.930;2023-06-19T06:47:24;6.60;;;5.60;;
74833;SDS011;63361;52.384;20.930;2023-06-19T06:49:49;9.17;;;5.90;;
74833;SDS011;63361;52.384;20.930;2023-06-19T06:52:14;6.77;;;5.03;;
74833;SDS011;63361;52.384;20.930;2023-06-19T06:54:39;7.23;;;5.13;;
74833;SDS011;63361;52.384;20.930;2023-06-19T06:57:05;8.57;;;5.57;;
74833;SDS011;63361;52.384;20.930;2023-06-19T06:59:30;9.00;;;6.10;;
74833;SDS011;63361;52.384;20.930;2023-06-19T07:01:55;7.57;;;5.30;;
74833;SDS011;63361;52.384;20.930;2023-06-19T07:04:23;7.80;;;5.60;;
74833;SDS011;63361;52.384;20.930;2023-06-19T07:06:48;8.07;;;6.00;;
74833;SDS011;63361;52.384;20.930;2023-06-19T07:09:14;8.02;;;5.60;;
74833;SDS011;63361;52.384;20.930;2023-06-19T07:11:40;6.83;;;6.13;;
74833;SDS011;63361;52.384;20.930;2023-06-19T07:14:05;7.47;;;5.03;;
74833;SDS011;63361;52.384;20.930;2023-06-19T07:16:30;7.50;;;4.30;;
74833;SDS011;63361;52.384;20.930;2023-06-19T07:18:55;6.63;;;4.70;;
74833;SDS011;63361;52.384;20.930;2023-06-19T07:21:21;6.77;;;4.87;;
74833;SDS011;63361;52.384;20.930;2023-06-19T07:23:46;7.80;;;5.90;;
74833;SDS011;63361;52.384;20.930;2023-06-19T07:26:13;8.07;;;5.03;;
74833;SDS011;63361;52.384;20.930;2023-06-19T07:28:38;6.73;;;4.87;;
74833;SDS011;63361;52.384;20.930;2023-06-19T07:31:03;8.38;;;5.82;;
74833;SDS011;63361;52.384;20.930;2023-06-19T07:33:28;7.13;;;5.40;;
74833;SDS011;63361;52.384;20.930;2023-06-19T07:35:54;7.20;;;5.00;;
74833;SDS011;63361;52.384;20.930;2023-06-19T07:38:19;8.03;;;5.40;;
74833;SDS011;63361;52.384;20.930;2023-06-19T07:40:45;9.00;;;5.33;;
74833;SDS011;63361;52.384;20.930;2023-06-19T07:43:10;7.00;;;5.03;;
74833;SDS011;63361;52.384;20.930;2023-06-19T07:45:35;7.13;;;5.20;;
74833;SDS011;63361;52.384;20.930;2023-06-19T07:48:00;7.73;;;4.63;;
74833;SDS011;63361;52.384;20.930;2023-06-19T07:50:25;8.90;;;5.13;;
74833;SDS011;63361;52.384;20.930;2023-06-19T07:52:52;8.77;;;5.68;;
74833;SDS011;63361;52.384;20.930;2023-06-19T07:55:17;7.63;;;5.47;;
74833;SDS011;63361;52.384;20.930;2023-06-19T07:57:42;6.73;;;5.27;;
74833;SDS011;63361;52.384;20.930;2023-06-19T08:00:07;5.90;;;5.00;;
74833;SDS011;63361;52.384;20.930;2023-06-19T08:02:36;7.82;;;4.85;;
74833;SDS011;63361;52.384;20.930;2023-06-19T08:05:01;5.43;;;4.70;;
74833;SDS011;63361;52.384;20.930;2023-06-19T08:07:26;8.40;;;4.80;;
74833;SDS011;63361;52.384;20.930;2023-06-19T08:09:51;5.97;;;4.53;;
74833;SDS011;63361;52.384;20.930;2023-06-19T08:12:17;6.23;;;4.87;;
74833;SDS011;63361;52.384;20.930;2023-06-19T08:14:42;6.17;;;4.37;;
74833;SDS011;63361;52.384;20.930;2023-06-19T08:17:07;6.07;;;4.53;;
74833;SDS011;63361;52.384;20.930;2023-06-19T08:19:33;5.57;;;4.17;;
74833;SDS011;63361;52.384;20.930;2023-06-19T08:21:58;7.95;;;4.10;;
74833;SDS011;63361;52.384;20.930;2023-06-19T08:24:23;5.93;;;4.13;;
74833;SDS011;63361;52.384;20.930;2023-06-19T08:26:49;7.75;;;5.32;;
74833;SDS011;63361;52.384;20.930;2023-06-19T08:29:16;6.00;;;4.80;;
74833;SDS011;63361;52.384;20.930;2023-06-19T08:31:41;8.50;;;4.50;;
74833;SDS011;63361;52.384;20.930;2023-06-19T08:34:06;6.93;;;4.20;;
74833;SDS011;63361;52.384;20.930;2023-06-19T08:36:34;6.00;;;4.18;;
74833;SDS011;63361;52.384;20.930;2023-06-19T08:38:59;6.17;;;4.07;;
74833;SDS011;63361;52.384;20.930;2023-06-19T08:41:24;6.93;;;3.90;;
74833;SDS011;63361;52.384;20.930;2023-06-19T08:43:50;7.60;;;5.27;;
74833;SDS011;63361;52.384;20.930;2023-06-19T08:46:15;8.97;;;5.27;;
74833;SDS011;63361;52.384;20.930;2023-06-19T08:48:42;9.43;;;5.50;;
74833;SDS011;63361;52.384;20.930;2023-06-19T08:51:08;8.55;;;3.80;;
74833;SDS011;63361;52.384;20.930;2023-06-19T08:53:34;5.65;;;4.13;;
74833;SDS011;63361;52.384;20.930;2023-06-19T08:56:01;7.37;;;3.97;;
74833;SDS011;63361;52.384;20.930;2023-06-19T08:58:27;5.18;;;3.88;;
74833;SDS011;63361;52.384;20.930;2023-06-19T09:00:52;6.33;;;4.00;;
74833;SDS011;63361;52.384;20.930;2023-06-19T09:03:20;5.60;;;3.60;;
74833;SDS011;63361;52.384;20.930;2023-06-19T09:05:49;6.47;;;4.00;;
74833;SDS011;63361;52.384;20.930;2023-06-19T09:08:15;5.78;;;3.78;;
74833;SDS011;63361;52.384;20.930;2023-06-19T09:10:41;6.10;;;3.33;;
74833;SDS011;63361;52.384;20.930;2023-06-19T09:13:06;6.13;;;4.70;;
74833;SDS011;63361;52.384;20.930;2023-06-19T09:15:33;6.75;;;5.18;;
74833;SDS011;63361;52.384;20.930;2023-06-19T09:18:03;6.32;;;4.65;;
74833;SDS011;63361;52.384;20.930;2023-06-19T09:20:28;6.10;;;4.22;;
74833;SDS011;63361;52.384;20.930;2023-06-19T09:22:54;6.10;;;3.50;;
74833;SDS011;63361;52.384;20.930;2023-06-19T09:25:20;5.10;;;3.72;;
74833;SDS011;63361;52.384;20.930;2023-06-19T09:27:45;5.90;;;3.60;;
74833;SDS011;63361;52.384;20.930;2023-06-19T09:30:14;5.93;;;4.67;;
74833;SDS011;63361;52.384;20.930;2023-06-19T09:32:39;8.18;;;3.95;;
74833;SDS011;63361;52.384;20.930;2023-06-19T09:35:04;5.57;;;3.87;;
74833;SDS011;63361;52.384;20.930;2023-06-19T09:37:30;5.00;;;3.80;;
74833;SDS011;63361;52.384;20.930;2023-06-19T09:39:56;7.70;;;4.53;;
74833;SDS011;63361;52.384;20.930;2023-06-19T09:42:43;6.72;;;3.83;;
74833;SDS011;63361;52.384;20.930;2023-06-19T09:45:08;5.70;;;3.85;;
74833;SDS011;63361;52.384;20.930;2023-06-19T09:47:38;4.83;;;3.60;;
74833;SDS011;63361;52.384;20.930;2023-06-19T09:50:04;5.07;;;3.15;;
74833;SDS011;63361;52.384;20.930;2023-06-19T09:52:29;4.43;;;3.35;;
74833;SDS011;63361;52.384;20.930;2023-06-19T09:54:54;7.43;;;3.70;;
74833;SDS011;63361;52.384;20.930;2023-06-19T09:57:20;5.40;;;3.57;;
74833;SDS011;63361;52.384;20.930;2023-06-19T09:59:47;6.30;;;3.70;;
74833;SDS011;63361;52.384;20.930;2023-06-19T10:02:14;6.25;;;3.90;;
74833;SDS011;63361;52.384;20.930;2023-06-19T10:04:44;5.83;;;3.90;;
74833;SDS011;63361;52.384;20.930;2023-06-19T10:07:16;6.03;;;3.83;;
74833;SDS011;63361;52.384;20.930;2023-06-19T10:09:54;6.38;;;3.88;;
74833;SDS011;63361;52.384;20.930;2023-06-19T10:12:19;7.22;;;3.90;;
74833;SDS011;63361;52.384;20.930;2023-06-19T10:14:46;7.50;;;3.67;;
74833;SDS011;63361;52.384;20.930;2023-06-19T10:17:16;8.63;;;4.22;;
74833;SDS011;63361;52.384;20.930;2023-06-19T10:19:48;5.85;;;3.63;;
74833;SDS011;63361;52.384;20.930;2023-06-19T10:22:18;5.93;;;3.97;;
74833;SDS011;63361;52.384;20.930;2023-06-19T10:24:48;5.32;;;3.67;;
74833;SDS011;63361;52.384;20.930;2023-06-19T10:27:20;5.60;;;3.63;;
74833;SDS011;63361;52.384;20.930;2023-06-19T10:29:51;7.95;;;4.25;;
74833;SDS011;63361;52.384;20.930;2023-06-19T10:32:16;6.10;;;4.03;;
74833;SDS011;63361;52.384;20.930;2023-06-19T10:34:44;6.03;;;3.73;;
74833;SDS011;63361;52.384;20.930;2023-06-19T10:37:10;7.37;;;3.60;;
74833;SDS011;63361;52.384;20.930;2023-06-19T10:39:35;5.30;;;3.37;;
74833;SDS011;63361;52.384;20.930;2023-06-19T10:42:00;5.20;;;3.33;;
74833;SDS011;63361;52.384;20.930;2023-06-19T10:44:25;5.40;;;3.70;;
74833;SDS011;63361;52.384;20.930;2023-06-19T10:46:52;6.45;;;3.83;;
74833;SDS011;63361;52.384;20.930;2023-06-19T10:49:17;7.10;;;4.03;;
74833;SDS011;63361;52.384;20.930;2023-06-19T10:51:42;4.83;;;3.70;;
74833;SDS011;63361;52.384;20.930;2023-06-19T10:54:09;5.95;;;3.40;;
74833;SDS011;63361;52.384;20.930;2023-06-19T10:56:34;4.80;;;3.60;;
74833;SDS011;63361;52.384;20.930;2023-06-19T10:59:00;5.07;;;3.30;;
74833;SDS011;63361;52.384;20.930;2023-06-19T11:01:36;6.15;;;3.70;;
74833;SDS011;63361;52.384;20.930;2023-06-19T11:04:02;4.90;;;3.80;;
74833;SDS011;63361;52.384;20.930;2023-06-19T11:06:28;7.10;;;3.60;;
74833;SDS011;63361;52.384;20.930;2023-06-19T11:08:54;5.43;;;3.90;;
74833;SDS011;63361;52.384;20.930;2023-06-19T11:11:19;5.63;;;3.97;;
74833;SDS011;63361;52.384;20.930;2023-06-19T11:13:45;5.93;;;3.90;;
74833;SDS011;63361;52.384;20.930;2023-06-19T11:16:10;6.40;;;3.67;;
74833;SDS011;63361;52.384;20.930;2023-06-19T11:18:35;6.03;;;3.47;;
74833;SDS011;63361;52.384;20.930;2023-06-19T11:21:01;6.18;;;3.80;;
74833;SDS011;63361;52.384;20.930;2023-06-19T11:23:26;6.73;;;3.50;;
74833;SDS011;63361;52.384;20.930;2023-06-19T11:25:52;5.40;;;3.93;;
74833;SDS011;63361;52.384;20.930;2023-06-19T11:28:17;5.93;;;3.90;;
74833;SDS011;63361;52.384;20.930;2023-06-19T11:30:49;5.40;;;3.88;;
74833;SDS011;63361;52.384;20.930;2023-06-19T11:35:51;5.47;;;3.80;;
74833;SDS011;63361;52.384;20.930;2023-06-19T11:38:19;5.57;;;4.03;;
74833;SDS011;63361;52.384;20.930;2023-06-19T11:40:46;6.85;;;4.15;;
74833;SDS011;63361;52.384;20.930;2023-06-19T11:43:11;4.85;;;3.65;;
74833;SDS011;63361;52.384;20.930;2023-06-19T11:45:47;6.10;;;4.20;;
74833;SDS011;63361;52.384;20.930;2023-06-19T11:48:12;6.95;;;4.75;;
74833;SDS011;63361;52.384;20.930;2023-06-19T11:50:38;6.93;;;4.00;;
74833;SDS011;63361;52.384;20.930;2023-06-19T11:53:03;5.60;;;4.20;;
74833;SDS011;63361;52.384;20.930;2023-06-19T11:55:28;9.10;;;4.10;;
74833;SDS011;63361;52.384;20.930;2023-06-19T11:57:53;7.57;;;3.97;;
74833;SDS011;63361;52.384;20.930;2023-06-19T12:00:18;5.07;;;3.77;;
74833;SDS011;63361;52.384;20.930;2023-06-19T12:02:44;5.53;;;3.93;;
74833;SDS011;63361;52.384;20.930;2023-06-19T12:05:11;5.60;;;3.90;;
74833;SDS011;63361;52.384;20.930;2023-06-19T12:07:37;5.37;;;4.07;;
74833;SDS011;63361;52.384;20.930;2023-06-19T12:10:02;6.27;;;4.03;;
74833;SDS011;63361;52.384;20.930;2023-06-19T12:12:28;8.73;;;4.18;;
74833;SDS011;63361;52.384;20.930;2023-06-19T12:14:54;5.80;;;3.78;;
74833;SDS011;63361;52.384;20.930;2023-06-19T12:17:20;7.33;;;4.20;;
74833;SDS011;63361;52.384;20.930;2023-06-19T12:19:45;6.50;;;4.10;;
74833;SDS011;63361;52.384;20.930;2023-06-19T12:22:10;5.80;;;4.20;;
74833;SDS011;63361;52.384;20.930;2023-06-19T12:24:35;6.27;;;4.03;;
74833;SDS011;63361;52.384;20.930;2023-06-19T12:27:00;5.87;;;3.90;;
74833;SDS011;63361;52.384;20.930;2023-06-19T12:29:26;9.13;;;4.63;;
74833;SDS011;63361;52.384;20.930;2023-06-19T12:31:51;7.77;;;4.37;;
74833;SDS011;63361;52.384;20.930;2023-06-19T12:34:16;5.50;;;4.00;;
74833;SDS011;63361;52.384;20.930;2023-06-19T12:36:42;6.07;;;3.97;;
74833;SDS011;63361;52.384;20.930;2023-06-19T12:39:08;7.43;;;5.13;;
74833;SDS011;63361;52.384;20.930;2023-06-19T12:41:39;6.17;;;4.30;;
74833;SDS011;63361;52.384;20.930;2023-06-19T12:44:05;5.87;;;4.10;;
74833;SDS011;63361;52.384;20.930;2023-06-19T12:46:30;7.00;;;3.90;;
74833;SDS011;63361;52.384;20.930;2023-06-19T12:48:55;7.23;;;3.87;;
74833;SDS011;63361;52.384;20.930;2023-06-19T12:51:20;5.30;;;3.90;;
74833;SDS011;63361;52.384;20.930;2023-06-19T12:53:45;12.93;;;5.60;;
74833;SDS011;63361;52.384;20.930;2023-06-19T12:56:11;8.43;;;4.10;;
74833;SDS011;63361;52.384;20.930;2023-06-19T12:58:36;8.03;;;3.67;;
74833;SDS011;63361;52.384;20.930;2023-06-19T13:01:01;6.20;;;3.90;;
74833;SDS011;63361;52.384;20.930;2023-06-19T13:03:26;6.17;;;4.30;;
74833;SDS011;63361;52.384;20.930;2023-06-19T13:05:51;5.17;;;3.73;;
74833;SDS011;63361;52.384;20.930;2023-06-19T13:08:17;7.37;;;4.57;;
74833;SDS011;63361;52.384;20.930;2023-06-19T13:10:42;5.07;;;3.73;;
74833;SDS011;63361;52.384;20.930;2023-06-19T13:13:07;5.63;;;3.90;;
74833;SDS011;63361;52.384;20.930;2023-06-19T13:15:35;11.93;;;7.70;;
74833;SDS011;63361;52.384;20.930;2023-06-19T13:18:00;8.60;;;5.10;;
74833;SDS011;63361;52.384;20.930;2023-06-19T13:20:25;6.53;;;4.40;;
74833;SDS011;63361;52.384;20.930;2023-06-19T13:22:50;5.53;;;3.80;;
74833;SDS011;63361;52.384;20.930;2023-06-19T13:25:17;5.23;;;3.70;;
74833;SDS011;63361;52.384;20.930;2023-06-19T13:27:42;6.97;;;3.93;;
74833;SDS011;63361;52.384;20.930;2023-06-19T13:30:08;5.88;;;4.15;;
74833;SDS011;63361;52.384;20.930;2023-06-19T13:32:33;6.93;;;3.90;;
74833;SDS011;63361;52.384;20.930;2023-06-19T13:34:59;5.80;;;3.87;;
74833;SDS011;63361;52.384;20.930;2023-06-19T13:37:24;6.67;;;4.60;;
74833;SDS011;63361;52.384;20.930;2023-06-19T13:39:49;6.47;;;4.17;;
74833;SDS011;63361;52.384;20.930;2023-06-19T13:42:14;5.73;;;4.20;;
74833;SDS011;63361;52.384;20.930;2023-06-19T13:44:40;6.83;;;4.10;;
74833;SDS011;63361;52.384;20.930;2023-06-19T13:47:05;6.03;;;4.20;;
74833;SDS011;63361;52.384;20.930;2023-06-19T13:49:30;7.77;;;4.13;;
74833;SDS011;63361;52.384;20.930;2023-06-19T13:51:55;6.17;;;3.53;;
74833;SDS011;63361;52.384;20.930;2023-06-19T13:54:21;6.37;;;4.20;;
74833;SDS011;63361;52.384;20.930;2023-06-19T13:56:46;5.90;;;3.70;;
74833;SDS011;63361;52.384;20.930;2023-06-19T13:59:12;5.78;;;4.20;;
74833;SDS011;63361;52.384;20.930;2023-06-19T14:01:37;5.87;;;4.17;;
74833;SDS011;63361;52.384;20.930;2023-06-19T14:04:02;5.53;;;4.00;;
74833;SDS011;63361;52.384;20.930;2023-06-19T14:06:28;6.40;;;4.13;;
74833;SDS011;63361;52.384;20.930;2023-06-19T14:08:53;8.40;;;4.10;;
74833;SDS011;63361;52.384;20.930;2023-06-19T14:11:18;6.05;;;4.03;;
74833;SDS011;63361;52.384;20.930;2023-06-19T14:13:44;7.30;;;3.70;;
74833;SDS011;63361;52.384;20.930;2023-06-19T14:16:09;5.43;;;3.63;;
74833;SDS011;63361;52.384;20.930;2023-06-19T14:18:34;5.47;;;3.60;;
74833;SDS011;63361;52.384;20.930;2023-06-19T14:21:01;5.68;;;3.40;;
74833;SDS011;63361;52.384;20.930;2023-06-19T14:23:27;6.43;;;3.97;;